HECA/CAI METAR and TAF weather

Enter ICAO airport designator
Station Type Date Time Source
HECA METAR 2020/08/14 01:00 UTC NOAA

HECA 140100Z 36005KT 6000 NSC 25/22 Q1007 NOSIG


Station Type Date Time Source
HECA Decoded METAR 2020/08/14 01:00 UTC NOAA

Cairo Airport, Egypt (HECA) 30-08N 031-24E 74M
Aug 13, 2020 - 09:00 PM EDT / 2020.08.14 0100 UTC
Wind: from the N (360 degrees) at 6 MPH (5 KT):0
Visibility: 3 mile(s):0
Temperature: 77 F (25 C)
Dew Point: 71 F (22 C)
Relative Humidity: 83%
Pressure (altimeter): 29.74 in. Hg (1007 hPa)
ob: HECA 140100Z 36005KT 6000 NSC 25/22 Q1007 NOSIG
cycle: 1

Station Type Date Time Source
HECA TAF 2020/08/13 18:59 UTC NOAA

TAF HECA 131700Z 1318/1424 01010KT CAVOK
TEMPO 1400/1407 VRB03KT 9999 FEW025 PROB30
TEMPO 1401/1406 4000 BR

Example: see airport list